createdAt,value
2019-05-18T00:01:07.888Z,40.07
2019-05-18T00:03:37.473Z,40.87
2019-05-18T00:06:07.067Z,39.87
2019-05-18T00:08:36.644Z,40.63
2019-05-18T00:11:06.233Z,36.73
2019-05-18T00:13:35.818Z,36.23
2019-05-18T00:16:05.417Z,39.27
2019-05-18T00:18:34.974Z,38.33
2019-05-18T00:21:04.717Z,41.20
2019-05-18T00:23:34.296Z,35.33
2019-05-18T00:26:04.107Z,38.60
2019-05-18T00:28:33.682Z,33.73
2019-05-18T00:31:03.358Z,36.10
2019-05-18T00:33:32.980Z,35.93
2019-05-18T00:36:02.616Z,38.00
2019-05-18T00:38:32.189Z,41.17
2019-05-18T00:41:01.912Z,38.27
2019-05-18T00:43:31.485Z,40.20
2019-05-18T00:46:01.168Z,38.43
2019-05-18T00:48:30.749Z,41.27
2019-05-18T00:51:00.320Z,38.53
2019-05-18T00:53:29.972Z,40.97
2019-05-18T00:55:59.590Z,40.50
2019-05-18T00:58:29.176Z,37.43
2019-05-18T01:00:58.775Z,39.60
2019-05-18T01:03:28.409Z,38.13
2019-05-18T01:05:57.989Z,38.07
2019-05-18T01:08:27.574Z,35.97
2019-05-18T01:10:57.137Z,38.03
2019-05-18T01:13:26.717Z,34.00
2019-05-18T01:15:56.288Z,33.57
2019-05-18T01:18:25.888Z,36.23
2019-05-18T01:20:55.448Z,35.07
2019-05-18T01:23:25.041Z,38.67
2019-05-18T01:25:54.550Z,34.00
2019-05-18T01:28:24.124Z,33.13
2019-05-18T01:30:53.641Z,34.93
2019-05-18T01:33:23.214Z,31.77
2019-05-18T01:35:52.857Z,34.00
2019-05-18T01:38:22.454Z,33.23
2019-05-18T01:40:52.034Z,37.93
2019-05-18T01:43:21.596Z,33.63
2019-05-18T01:45:51.184Z,33.70
2019-05-18T01:48:20.760Z,31.03
2019-05-18T01:50:50.327Z,31.37
2019-05-18T01:53:19.909Z,32.73
2019-05-18T01:55:49.584Z,33.17
2019-05-18T01:58:19.165Z,30.00
2019-05-18T02:00:48.721Z,27.77
2019-05-18T02:03:18.314Z,30.50
2019-05-18T02:05:47.932Z,30.60
2019-05-18T02:08:17.549Z,30.50
2019-05-18T02:11:06.477Z,27.80
2019-05-18T02:13:36.060Z,30.80
2019-05-18T02:16:05.838Z,28.00
2019-05-18T02:18:35.616Z,29.10
2019-05-18T02:21:05.188Z,29.83
2019-05-18T02:23:34.969Z,30.20
2019-05-18T02:26:04.671Z,28.87
2019-05-18T02:28:34.174Z,29.03
2019-05-18T02:31:03.839Z,28.00
2019-05-18T02:33:33.346Z,27.33
2019-05-18T02:36:03.025Z,30.00
2019-05-18T02:38:32.526Z,31.27
2019-05-18T02:41:02.044Z,29.30
2019-05-18T02:43:31.617Z,39.80
2019-05-18T02:46:01.213Z,33.70
2019-05-18T02:48:47.587Z,29.03
2019-05-18T02:51:02.049Z,33.20
2019-05-18T02:53:31.551Z,28.53
2019-05-18T02:56:01.214Z,34.13
2019-05-18T02:58:30.782Z,27.30
2019-05-18T03:01:00.357Z,30.27
2019-05-18T03:03:29.929Z,32.00
2019-05-18T03:06:04.526Z,29.33
2019-05-18T03:08:34.106Z,34.30
2019-05-18T03:11:03.690Z,35.00
2019-05-18T03:13:33.269Z,34.70
2019-05-18T03:16:02.908Z,34.53
2019-05-18T03:18:32.485Z,34.87
2019-05-18T03:21:02.072Z,33.40
2019-05-18T03:23:31.678Z,35.70
2019-05-18T03:26:01.306Z,28.90
2019-05-18T03:28:30.904Z,36.07
2019-05-18T03:31:00.477Z,33.73
2019-05-18T03:33:30.699Z,27.77
2019-05-18T03:36:00.415Z,46.83
2019-05-18T03:38:29.961Z,65.57
2019-05-18T03:40:59.558Z,31.80
2019-05-18T03:43:29.137Z,32.43
2019-05-18T03:45:58.721Z,33.23
2019-05-18T03:48:28.286Z,35.87
2019-05-18T03:50:57.868Z,41.53
2019-05-18T03:53:27.433Z,39.80
2019-05-18T03:55:57.157Z,52.00
2019-05-18T03:58:26.757Z,43.23
2019-05-18T04:00:56.344Z,53.50
2019-05-18T04:03:25.910Z,43.50
2019-05-18T04:05:55.485Z,46.47
2019-05-18T04:08:25.078Z,42.60
2019-05-18T04:10:54.890Z,53.07
2019-05-18T04:13:24.470Z,50.33
2019-05-18T04:15:54.053Z,56.23
2019-05-18T04:18:23.620Z,56.60
2019-05-18T04:20:53.125Z,44.70
2019-05-18T04:23:22.815Z,60.40
2019-05-18T04:25:57.338Z,53.40
2019-05-18T04:28:26.908Z,47.67
2019-05-18T04:30:56.500Z,44.67
2019-05-18T04:33:26.166Z,44.60
2019-05-18T04:36:00.573Z,40.80
2019-05-18T04:38:30.161Z,44.47
2019-05-18T04:40:59.657Z,45.40
2019-05-18T04:43:29.240Z,44.23
2019-05-18T04:46:03.716Z,47.17
2019-05-18T04:48:33.232Z,43.87
2019-05-18T04:51:02.790Z,45.50
2019-05-18T04:53:32.313Z,48.63
2019-05-18T04:56:11.889Z,45.23
2019-05-18T04:58:41.400Z,46.27
2019-05-18T05:01:10.966Z,47.03
2019-05-18T05:03:40.542Z,49.03
2019-05-18T05:06:10.049Z,43.37
2019-05-18T05:08:39.620Z,46.57
2019-05-18T05:11:09.209Z,47.70
2019-05-18T05:13:38.721Z,43.10
2019-05-18T05:16:08.226Z,43.17
2019-05-18T05:18:37.893Z,41.90
2019-05-18T05:21:07.477Z,41.80
2019-05-18T05:23:36.977Z,44.03
2019-05-18T05:26:06.561Z,44.57
2019-05-18T05:28:36.133Z,38.53
2019-05-18T05:31:05.745Z,42.83
2019-05-18T05:33:35.301Z,41.30
2019-05-18T05:36:04.879Z,39.83
2019-05-18T05:38:34.379Z,39.43
2019-05-18T05:41:04.023Z,38.07
2019-05-18T05:43:33.752Z,41.03
2019-05-18T05:46:03.363Z,37.37
2019-05-18T05:48:33.001Z,37.97
2019-05-18T05:51:02.569Z,36.37
2019-05-18T05:53:32.165Z,35.20
2019-05-18T05:56:03.400Z,38.83
2019-05-18T05:58:33.043Z,31.53
2019-05-18T06:01:02.741Z,31.53
2019-05-18T06:03:32.410Z,31.47
2019-05-18T06:06:02.320Z,33.87
2019-05-18T06:08:32.066Z,32.23
2019-05-18T06:11:01.641Z,31.97
2019-05-18T06:13:31.220Z,29.43
2019-05-18T06:16:00.893Z,29.70
2019-05-18T06:18:30.674Z,29.07
2019-05-18T06:21:00.440Z,33.27
2019-05-18T06:23:30.133Z,28.43
2019-05-18T06:26:00.885Z,28.87
2019-05-18T06:28:30.959Z,30.07
2019-05-18T06:31:00.459Z,28.63
2019-05-18T06:33:31.057Z,31.63
2019-05-18T06:36:00.563Z,28.70
2019-05-18T06:38:30.159Z,29.00
2019-05-18T06:40:59.841Z,26.77
2019-05-18T06:43:30.030Z,28.10
2019-05-18T06:45:59.708Z,29.80
2019-05-18T06:48:29.330Z,26.27
2019-05-18T06:51:07.082Z,27.70
2019-05-18T06:53:30.229Z,29.30
2019-05-18T06:56:00.573Z,33.63
2019-05-18T06:58:31.118Z,29.33
2019-05-18T07:01:00.765Z,28.50
2019-05-18T07:03:30.468Z,30.87
2019-05-18T07:06:00.120Z,30.50
2019-05-18T07:08:29.821Z,30.40
2019-05-18T07:10:59.346Z,30.60
2019-05-18T07:13:29.053Z,28.67
2019-05-18T07:15:58.737Z,27.97
2019-05-18T07:18:28.241Z,27.73
2019-05-18T07:20:58.467Z,29.77
2019-05-18T07:23:28.113Z,28.97
2019-05-18T07:25:58.684Z,29.67
2019-05-18T07:28:28.281Z,27.50
2019-05-18T07:30:57.849Z,27.00
2019-05-18T07:33:27.425Z,28.67
2019-05-18T07:35:57.018Z,26.93
2019-05-18T07:38:26.581Z,28.40
2019-05-18T07:40:58.112Z,31.97
2019-05-18T07:43:28.869Z,29.27
2019-05-18T07:45:58.526Z,26.33
2019-05-18T07:48:28.125Z,28.07
2019-05-18T07:50:57.701Z,27.57
2019-05-18T07:53:27.304Z,27.10
2019-05-18T07:55:56.800Z,26.37
2019-05-18T07:58:26.389Z,26.67
2019-05-18T08:00:55.977Z,28.63
2019-05-18T08:03:25.471Z,27.80
2019-05-18T08:05:57.482Z,28.53
2019-05-18T08:08:27.362Z,27.70
2019-05-18T08:10:56.961Z,29.10
2019-05-18T08:13:26.542Z,29.27
2019-05-18T08:15:56.411Z,27.03
2019-05-18T08:18:26.007Z,26.40
2019-05-18T08:20:55.585Z,25.63
2019-05-18T08:23:25.184Z,27.27
2019-05-18T08:25:54.938Z,26.70
2019-05-18T08:28:27.051Z,30.55
2019-05-18T08:30:58.228Z,26.45
2019-05-18T08:33:27.845Z,29.55
2019-05-18T08:35:57.445Z,27.20
2019-05-18T08:38:27.027Z,26.30
2019-05-18T08:40:56.539Z,27.58
2019-05-18T08:43:26.313Z,26.85
2019-05-18T08:45:59.355Z,27.13
2019-05-18T08:48:29.339Z,26.42
2019-05-18T08:50:59.061Z,28.50
2019-05-18T08:53:29.207Z,26.20
2019-05-18T08:56:03.866Z,27.27
2019-05-18T08:58:33.789Z,24.35
2019-05-18T09:01:04.049Z,23.22
2019-05-18T09:03:33.853Z,24.12
2019-05-18T09:06:04.281Z,25.45
2019-05-18T09:08:33.787Z,23.15
2019-05-18T09:11:03.373Z,25.20
2019-05-18T09:13:33.173Z,23.30
2019-05-18T09:16:23.025Z,22.37
2019-05-18T09:18:52.747Z,20.65
2019-05-18T09:21:22.334Z,24.50
2019-05-18T09:23:51.913Z,24.75
2019-05-18T09:26:21.501Z,19.85
2019-05-18T09:28:51.292Z,24.80
2019-05-18T09:31:21.365Z,21.62
2019-05-18T09:33:51.214Z,21.00
2019-05-18T09:36:20.827Z,21.17
2019-05-18T09:38:50.354Z,22.02
2019-05-18T09:41:20.289Z,18.57
2019-05-18T09:43:52.517Z,24.40
2019-05-18T09:46:28.290Z,20.30
2019-05-18T09:48:59.385Z,19.25
2019-05-18T09:51:29.278Z,19.85
2019-05-18T09:53:58.858Z,20.75
2019-05-18T09:56:33.340Z,17.82
2019-05-18T09:59:03.045Z,17.07
2019-05-18T10:01:51.967Z,17.40
2019-05-18T10:04:21.634Z,16.02
2019-05-18T10:06:51.224Z,15.38
2019-05-18T10:09:20.797Z,16.55
2019-05-18T10:11:50.374Z,15.32
2019-05-18T10:14:19.892Z,12.40
2019-05-18T10:17:04.428Z,16.00
2019-05-18T10:19:34.117Z,14.78
2019-05-18T10:22:03.774Z,27.67
2019-05-18T10:24:33.366Z,23.87
2019-05-18T10:27:02.941Z,23.12
2019-05-18T10:29:32.456Z,19.42
2019-05-18T10:32:02.044Z,12.30
2019-05-18T10:34:31.537Z,21.48
2019-05-18T10:37:01.137Z,24.00
2019-05-18T10:39:30.697Z,25.55
2019-05-18T10:42:00.289Z,27.35
2019-05-18T10:44:29.885Z,25.77
2019-05-18T10:46:59.538Z,25.20
2019-05-18T10:49:29.114Z,23.70
2019-05-18T10:51:58.717Z,24.35
2019-05-18T10:54:28.220Z,24.45
2019-05-18T10:56:57.737Z,25.05
2019-05-18T10:59:27.332Z,23.50
2019-05-18T11:01:56.923Z,23.53
2019-05-18T11:04:26.497Z,25.37
2019-05-18T11:06:56.070Z,25.50
2019-05-18T11:09:25.658Z,24.70
2019-05-18T11:11:55.241Z,24.87
2019-05-18T11:14:24.757Z,23.98
2019-05-18T11:16:54.349Z,23.87
2019-05-18T11:19:23.929Z,23.25
2019-05-18T11:21:53.505Z,21.90
2019-05-18T11:24:23.090Z,23.62
2019-05-18T11:26:52.670Z,23.25
2019-05-18T11:29:41.677Z,25.27
2019-05-18T11:32:11.274Z,26.02
2019-05-18T11:34:40.838Z,24.90
2019-05-18T11:37:10.430Z,23.40
2019-05-18T11:39:40.044Z,23.62
2019-05-18T11:42:09.766Z,24.60
2019-05-18T11:44:39.356Z,24.02
2019-05-18T11:47:08.946Z,20.92
2019-05-18T11:49:38.803Z,19.42
2019-05-18T11:52:08.547Z,19.50
2019-05-18T11:54:38.149Z,14.30
2019-05-18T11:57:07.738Z,14.10
2019-05-18T11:59:37.313Z,11.90
2019-05-18T12:02:06.985Z,13.53
2019-05-18T12:04:36.583Z,23.70
2019-05-18T12:07:06.175Z,23.75
2019-05-18T12:09:35.931Z,27.05
2019-05-18T12:12:05.620Z,23.65
2019-05-18T12:14:35.207Z,22.58
2019-05-18T12:17:04.820Z,21.45
2019-05-18T12:19:34.568Z,21.68
2019-05-18T12:22:04.153Z,22.20
2019-05-18T12:24:33.763Z,25.60
2019-05-18T12:27:03.406Z,24.27
2019-05-18T12:29:32.990Z,22.85
2019-05-18T12:32:02.566Z,23.20
2019-05-18T12:34:32.137Z,23.30
2019-05-18T12:37:01.787Z,26.40
2019-05-18T12:39:31.426Z,24.30
2019-05-18T12:42:01.041Z,24.60
2019-05-18T12:44:30.585Z,27.30
2019-05-18T12:47:00.176Z,25.05
2019-05-18T12:49:29.754Z,27.07
2019-05-18T12:51:59.356Z,23.87
2019-05-18T12:54:38.352Z,27.93
2019-05-18T12:57:00.273Z,24.40
2019-05-18T12:59:29.867Z,29.07
2019-05-18T13:01:59.377Z,25.60
2019-05-18T13:04:28.972Z,25.27
2019-05-18T13:06:59.738Z,24.30
2019-05-18T13:09:29.344Z,23.83
2019-05-18T13:11:58.921Z,20.12
2019-05-18T13:14:29.646Z,18.17
2019-05-18T13:16:59.226Z,22.40
2019-05-18T13:19:28.814Z,22.87
2019-05-18T13:21:58.331Z,22.27
2019-05-18T13:24:27.918Z,22.37
2019-05-18T13:26:57.437Z,21.50
2019-05-18T13:29:27.038Z,20.07
2019-05-18T13:31:56.596Z,20.70
2019-05-18T13:34:26.114Z,21.27
2019-05-18T13:36:55.630Z,19.00
2019-05-18T13:39:25.161Z,18.73
2019-05-18T13:41:54.889Z,16.83
2019-05-18T13:44:24.575Z,17.23
2019-05-18T13:46:54.148Z,17.45
2019-05-18T13:49:23.728Z,16.47
2019-05-18T13:51:53.433Z,37.93
2019-05-18T13:54:23.012Z,17.15
2019-05-18T13:56:52.654Z,15.17
2019-05-18T13:59:22.234Z,21.35
2019-05-18T14:01:54.974Z,15.80
2019-05-18T14:04:23.207Z,16.20
2019-05-18T14:06:52.889Z,17.77
2019-05-18T14:09:22.532Z,16.33
2019-05-18T14:11:52.098Z,17.33
2019-05-18T14:14:21.682Z,18.87
2019-05-18T14:16:51.377Z,19.33
2019-05-18T14:19:21.002Z,17.98
2019-05-18T14:21:50.641Z,14.23
2019-05-18T14:24:20.237Z,13.88
2019-05-18T14:26:49.812Z,14.28
2019-05-18T14:29:19.407Z,13.65
2019-05-18T14:31:48.982Z,12.98
2019-05-18T14:34:18.629Z,13.83
2019-05-18T14:36:48.198Z,19.35
2019-05-18T14:39:17.799Z,16.77
2019-05-18T14:41:47.373Z,14.30
2019-05-18T14:44:16.974Z,16.33
2019-05-18T14:46:46.657Z,16.70
2019-05-18T14:49:16.262Z,16.75
2019-05-18T14:51:45.864Z,16.30
2019-05-18T14:54:15.530Z,15.33
2019-05-18T14:56:45.113Z,15.70
2019-05-18T14:59:14.687Z,16.80
2019-05-18T15:01:44.271Z,17.85
2019-05-18T15:04:13.849Z,14.33
2019-05-18T15:06:43.438Z,14.93
2019-05-18T15:09:13.008Z,14.77
2019-05-18T15:11:42.607Z,17.23
2019-05-18T15:14:12.117Z,14.18
2019-05-18T15:16:41.736Z,16.25
2019-05-18T15:19:11.301Z,14.87
2019-05-18T15:21:40.880Z,14.38
2019-05-18T15:24:10.462Z,14.17
2019-05-18T15:26:40.049Z,13.60
2019-05-18T15:29:09.561Z,13.10
2019-05-18T15:31:39.188Z,14.33
2019-05-18T15:34:08.772Z,15.28
2019-05-18T15:36:38.382Z,14.90
2019-05-18T15:39:07.955Z,13.77
2019-05-18T15:41:37.556Z,14.43
2019-05-18T15:44:07.137Z,14.00
2019-05-18T15:46:36.716Z,14.00
2019-05-18T15:49:06.305Z,15.67
2019-05-18T15:51:35.911Z,15.00
2019-05-18T15:54:05.528Z,18.43
2019-05-18T15:56:35.147Z,20.67
2019-05-18T15:59:04.781Z,16.50
2019-05-18T16:01:34.389Z,14.87
2019-05-18T16:04:06.685Z,15.20
2019-05-18T16:06:42.609Z,17.73
2019-05-18T16:09:12.188Z,17.07
2019-05-18T16:11:41.757Z,16.30
2019-05-18T16:14:11.441Z,16.50
2019-05-18T16:16:41.120Z,15.83
2019-05-18T16:19:10.831Z,18.63
2019-05-18T16:21:40.337Z,15.50
2019-05-18T16:24:09.925Z,16.23
2019-05-18T16:26:39.502Z,19.60
2019-05-18T16:29:09.080Z,20.03
2019-05-18T16:31:38.661Z,19.03
2019-05-18T16:34:08.321Z,19.57
2019-05-18T16:36:37.825Z,12.90
2019-05-18T16:39:08.027Z,12.37
2019-05-18T16:41:37.721Z,14.07
2019-05-18T16:44:07.224Z,19.43
2019-05-18T16:46:36.807Z,19.57
2019-05-18T16:49:06.306Z,20.20
2019-05-18T16:51:35.816Z,21.07
2019-05-18T16:54:05.495Z,22.00
2019-05-18T16:56:35.558Z,25.43
2019-05-18T16:59:05.233Z,21.57
2019-05-18T17:01:34.738Z,21.37
2019-05-18T17:04:04.313Z,25.60
2019-05-18T17:06:33.818Z,23.87
2019-05-18T17:09:04.769Z,23.93
2019-05-18T17:11:34.264Z,22.57
2019-05-18T17:14:03.978Z,23.90
2019-05-18T17:16:33.477Z,21.83
2019-05-18T17:19:03.065Z,28.67
2019-05-18T17:21:32.581Z,24.60
2019-05-18T17:24:02.086Z,21.53
2019-05-18T17:26:31.614Z,23.77
2019-05-18T17:29:01.213Z,24.70
2019-05-18T17:31:31.618Z,26.33
2019-05-18T17:34:01.191Z,24.47
2019-05-18T17:36:30.715Z,25.17
2019-05-18T17:39:00.249Z,24.90
2019-05-18T17:41:29.882Z,26.23
2019-05-18T17:43:59.473Z,24.77
2019-05-18T17:46:29.157Z,25.50
2019-05-18T17:48:58.765Z,24.50
2019-05-18T17:51:28.273Z,22.87
2019-05-18T17:53:57.773Z,25.13
2019-05-18T17:56:27.305Z,24.53
2019-05-18T17:58:56.809Z,24.67
2019-05-18T18:01:26.399Z,27.57
2019-05-18T18:03:55.972Z,25.93
2019-05-18T18:06:25.753Z,31.63
2019-05-18T18:08:55.333Z,27.40
2019-05-18T18:11:25.226Z,27.43
2019-05-18T18:13:54.726Z,26.53
2019-05-18T18:16:25.834Z,30.83
2019-05-18T18:18:55.405Z,28.50
2019-05-18T18:21:25.019Z,28.60
2019-05-18T18:23:55.360Z,26.03
2019-05-18T18:26:25.238Z,28.13
2019-05-18T18:28:54.800Z,31.27
2019-05-18T18:31:24.392Z,31.13
2019-05-18T18:33:53.984Z,32.07
2019-05-18T18:36:23.548Z,27.80
2019-05-18T18:38:53.137Z,28.10
2019-05-18T18:41:22.716Z,30.20
2019-05-18T18:43:52.230Z,26.93
2019-05-18T18:46:21.814Z,26.07
2019-05-18T18:48:51.339Z,27.60
2019-05-18T18:51:21.005Z,28.70
2019-05-18T18:53:50.633Z,27.73
2019-05-18T18:56:20.203Z,28.47
2019-05-18T18:58:49.792Z,28.40
2019-05-18T19:01:19.374Z,30.60
2019-05-18T19:03:48.945Z,28.20
2019-05-18T19:06:18.576Z,27.90
2019-05-18T19:08:48.137Z,31.20
2019-05-18T19:11:17.710Z,30.90
2019-05-18T19:13:47.222Z,29.80
2019-05-18T19:16:16.732Z,28.37
2019-05-18T19:18:46.305Z,30.93
2019-05-18T19:21:15.841Z,26.60
2019-05-18T19:23:45.419Z,27.83
2019-05-18T19:26:14.993Z,29.73
2019-05-18T19:28:44.588Z,29.07
2019-05-18T19:31:14.180Z,28.77
2019-05-18T19:33:43.754Z,31.67
2019-05-18T19:36:13.261Z,30.77
2019-05-18T19:38:42.776Z,28.37
2019-05-18T19:41:12.293Z,31.53
2019-05-18T19:43:41.801Z,31.27
2019-05-18T19:46:11.481Z,31.00
2019-05-18T19:48:41.017Z,31.03
2019-05-18T19:51:10.650Z,31.77
2019-05-18T19:53:40.170Z,33.50
2019-05-18T19:56:09.677Z,31.47
2019-05-18T19:58:39.195Z,28.47
2019-05-18T20:01:08.790Z,28.07
2019-05-18T20:03:38.272Z,30.27
2019-05-18T20:06:08.018Z,32.90
2019-05-18T20:08:37.574Z,27.53
2019-05-18T20:11:07.284Z,31.63
2019-05-18T20:13:37.247Z,29.77
2019-05-18T20:16:07.404Z,30.83
2019-05-18T20:18:37.013Z,33.90
2019-05-18T20:21:06.601Z,31.27
2019-05-18T20:23:36.179Z,33.80
2019-05-18T20:26:05.705Z,33.37
2019-05-18T20:28:35.207Z,31.60
2019-05-18T20:31:04.728Z,30.13
2019-05-18T20:33:34.247Z,35.00
2019-05-18T20:36:03.765Z,36.80
2019-05-18T20:38:33.268Z,32.83
2019-05-18T20:41:02.894Z,35.33
2019-05-18T20:43:32.494Z,32.73
2019-05-18T20:46:01.995Z,35.53
2019-05-18T20:48:31.631Z,33.13
2019-05-18T20:51:01.307Z,33.87
2019-05-18T20:53:30.881Z,36.47
2019-05-18T20:56:00.448Z,33.73
2019-05-18T20:58:39.436Z,33.73
2019-05-18T21:01:01.221Z,33.00
2019-05-18T21:03:30.721Z,32.47
2019-05-18T21:06:00.227Z,30.27
2019-05-18T21:08:30.044Z,33.87
2019-05-18T21:10:59.556Z,34.70
2019-05-18T21:13:29.126Z,36.20
2019-05-18T21:15:58.701Z,38.27
2019-05-18T21:18:28.193Z,37.90
2019-05-18T21:20:57.794Z,36.63
2019-05-18T21:23:27.301Z,40.70
2019-05-18T21:25:56.807Z,34.13
2019-05-18T21:28:26.301Z,37.13
2019-05-18T21:30:55.880Z,41.03
2019-05-18T21:33:25.385Z,37.83
2019-05-18T21:35:54.879Z,37.40
2019-05-18T21:38:24.393Z,35.80
2019-05-18T21:40:54.004Z,36.93
2019-05-18T21:43:23.576Z,36.77
2019-05-18T21:45:53.140Z,38.27
2019-05-18T21:48:22.726Z,40.80
2019-05-18T21:50:52.313Z,38.00
2019-05-18T21:53:21.808Z,38.60
2019-05-18T21:55:51.172Z,39.87
2019-05-18T21:58:20.568Z,42.57
2019-05-18T22:00:50.366Z,40.73
2019-05-18T22:03:19.856Z,41.23
2019-05-18T22:05:49.442Z,39.63
2019-05-18T22:08:19.007Z,39.67
2019-05-18T22:10:48.517Z,41.80
2019-05-18T22:13:18.150Z,42.10
2019-05-18T22:15:47.730Z,42.87
2019-05-18T22:18:24.430Z,41.80
2019-05-18T22:20:48.718Z,52.37
2019-05-18T22:23:18.281Z,48.73
2019-05-18T22:25:47.868Z,49.43
2019-05-18T22:28:17.442Z,49.77
2019-05-18T22:30:47.028Z,50.53
2019-05-18T22:33:16.522Z,61.00
2019-05-18T22:35:46.034Z,58.57
2019-05-18T22:38:15.284Z,56.87
2019-05-18T22:40:44.431Z,57.87
2019-05-18T22:43:13.995Z,54.63
2019-05-18T22:45:43.960Z,55.30
2019-05-18T22:48:13.541Z,58.70
2019-05-18T22:50:42.717Z,56.60
2019-05-18T22:53:11.860Z,56.87
2019-05-18T22:55:41.013Z,52.10
2019-05-18T22:58:10.099Z,68.07
2019-05-18T23:00:39.586Z,61.90
2019-05-18T23:03:08.829Z,51.17
2019-05-18T23:05:37.901Z,46.73
2019-05-18T23:08:07.037Z,66.20
2019-05-18T23:10:36.458Z,77.60
2019-05-18T23:13:05.782Z,47.93
2019-05-18T23:15:35.301Z,58.53
2019-05-18T23:18:04.385Z,70.10
2019-05-18T23:20:33.883Z,44.97
2019-05-18T23:23:03.153Z,55.37
2019-05-18T23:25:32.351Z,44.70
2019-05-18T23:28:01.589Z,53.13
2019-05-18T23:30:30.662Z,43.97
2019-05-18T23:32:59.822Z,34.77
2019-05-18T23:35:28.973Z,47.10
2019-05-18T23:37:58.112Z,41.83
2019-05-18T23:40:27.273Z,51.30
2019-05-18T23:42:56.754Z,44.90
2019-05-18T23:45:25.940Z,47.40
2019-05-18T23:47:55.077Z,42.87
2019-05-18T23:50:24.486Z,49.67
2019-05-18T23:52:53.740Z,37.87
2019-05-18T23:55:23.213Z,46.33
2019-05-18T23:57:52.394Z,34.40
